createdAt,value
2018-03-20T00:01:31.614Z,35.90
2018-03-20T00:03:59.707Z,35.90
2018-03-20T00:06:27.922Z,35.80
2018-03-20T00:08:56.525Z,35.90
2018-03-20T00:11:24.188Z,36.10
2018-03-20T00:13:51.799Z,35.90
2018-03-20T00:16:19.389Z,36.00
2018-03-20T00:18:47.778Z,36.20
2018-03-20T00:21:16.134Z,36.30
2018-03-20T00:23:43.710Z,36.20
2018-03-20T00:26:11.321Z,36.20
2018-03-20T00:28:39.321Z,36.20
2018-03-20T00:31:06.942Z,36.20
2018-03-20T00:33:34.520Z,36.20
2018-03-20T00:36:02.106Z,36.10
2018-03-20T00:38:29.682Z,36.10
2018-03-20T00:40:58.056Z,35.80
2018-03-20T00:43:26.450Z,36.00
2018-03-20T00:45:54.147Z,35.90
2018-03-20T00:48:22.524Z,36.00
2018-03-20T00:50:51.142Z,35.90
2018-03-20T00:53:18.751Z,35.90
2018-03-20T00:55:46.379Z,36.00
2018-03-20T00:58:14.788Z,36.00
2018-03-20T01:00:42.744Z,36.00
2018-03-20T01:03:10.424Z,36.00
2018-03-20T01:05:39.133Z,36.30
2018-03-20T01:08:06.848Z,36.20
2018-03-20T01:10:34.501Z,36.30
2018-03-20T01:13:02.163Z,36.50
2018-03-20T01:15:29.820Z,36.30
2018-03-20T01:17:58.190Z,36.60
2018-03-20T01:20:27.446Z,36.60
2018-03-20T01:22:55.096Z,36.50
2018-03-20T01:25:23.466Z,36.80
2018-03-20T01:27:51.137Z,36.70
2018-03-20T01:30:18.767Z,36.60
2018-03-20T01:32:46.496Z,36.80
2018-03-20T01:35:14.119Z,36.80
2018-03-20T01:37:41.694Z,36.80
2018-03-20T01:40:09.331Z,37.00
2018-03-20T01:42:37.046Z,37.00
2018-03-20T01:45:04.838Z,37.00
2018-03-20T01:47:32.414Z,36.90
2018-03-20T01:49:59.974Z,37.00
2018-03-20T01:52:27.544Z,36.90
2018-03-20T01:54:55.282Z,37.10
2018-03-20T01:57:23.657Z,37.10
2018-03-20T01:59:52.007Z,37.90
2018-03-20T02:02:19.610Z,37.10
2018-03-20T02:04:48.220Z,37.50
2018-03-20T02:07:15.994Z,37.40
2018-03-20T02:09:43.604Z,37.40
2018-03-20T02:12:11.168Z,37.40
2018-03-20T02:14:38.734Z,37.50
2018-03-20T02:17:07.070Z,37.60
2018-03-20T02:19:34.638Z,37.60
2018-03-20T02:22:02.417Z,37.50
2018-03-20T02:24:30.485Z,37.40
2018-03-20T02:26:58.889Z,37.30
2018-03-20T02:29:26.447Z,37.20
2018-03-20T02:31:54.042Z,37.20
2018-03-20T02:34:21.629Z,37.30
2018-03-20T02:36:49.191Z,37.10
2018-03-20T02:39:16.790Z,37.00
2018-03-20T02:41:45.152Z,36.80
2018-03-20T02:44:12.719Z,36.70
2018-03-20T02:46:40.278Z,36.70
2018-03-20T02:49:07.848Z,36.70
2018-03-20T02:51:35.443Z,36.60
2018-03-20T02:54:02.993Z,36.60
2018-03-20T02:56:30.556Z,36.40
2018-03-20T02:58:58.159Z,36.30
2018-03-20T03:01:25.762Z,36.20
2018-03-20T03:03:54.102Z,36.40
2018-03-20T03:06:21.670Z,36.20
2018-03-20T03:08:49.230Z,36.30
2018-03-20T03:11:16.803Z,36.60
2018-03-20T03:13:44.362Z,37.00
2018-03-20T03:16:11.917Z,37.00
2018-03-20T03:18:39.696Z,37.20
2018-03-20T03:21:07.245Z,37.00
2018-03-20T03:23:35.579Z,37.20
2018-03-20T03:26:03.129Z,37.10
2018-03-20T03:28:30.692Z,36.90
2018-03-20T03:30:58.296Z,36.80
2018-03-20T03:33:25.858Z,36.70
2018-03-20T03:35:53.430Z,36.50
2018-03-20T03:38:20.979Z,36.40
2018-03-20T03:40:49.302Z,36.60
2018-03-20T03:43:16.870Z,37.20
2018-03-20T03:45:44.422Z,36.20
2018-03-20T03:48:11.984Z,36.70
2018-03-20T03:50:39.569Z,36.60
2018-03-20T03:53:07.156Z,36.70
2018-03-20T03:55:34.749Z,36.50
2018-03-20T03:58:02.408Z,36.30
2018-03-20T04:00:29.970Z,36.30
2018-03-20T04:02:57.574Z,36.20
2018-03-20T04:05:25.147Z,37.00
2018-03-20T04:07:52.758Z,36.30
2018-03-20T04:10:21.078Z,36.80
2018-03-20T04:12:48.682Z,36.70
2018-03-20T04:15:16.248Z,36.90
2018-03-20T04:17:43.855Z,36.80
2018-03-20T04:20:11.433Z,36.70
2018-03-20T04:22:39.325Z,36.80
2018-03-20T04:25:07.666Z,36.60
2018-03-20T04:27:35.247Z,36.60
2018-03-20T04:30:02.802Z,36.70
2018-03-20T04:32:30.403Z,36.60
2018-03-20T04:34:57.957Z,36.60
2018-03-20T04:37:25.549Z,36.90
2018-03-20T04:39:53.121Z,37.00
2018-03-20T04:42:20.678Z,37.60
2018-03-20T04:44:48.266Z,38.70
2018-03-20T04:47:15.814Z,39.40
2018-03-20T04:49:43.411Z,38.50
2018-03-20T04:52:11.057Z,38.40
2018-03-20T04:54:39.002Z,38.80
2018-03-20T04:57:06.559Z,38.40
2018-03-20T04:59:34.212Z,38.50
2018-03-20T05:02:01.798Z,38.40
2018-03-20T05:04:29.420Z,38.70
2018-03-20T05:06:56.997Z,38.30
2018-03-20T05:09:24.634Z,38.40
2018-03-20T05:11:52.216Z,38.70
2018-03-20T05:14:20.570Z,39.30
2018-03-20T05:16:48.130Z,39.30
2018-03-20T05:22:38.318Z,39.90
2018-03-20T05:25:06.669Z,41.60
2018-03-20T05:27:34.414Z,41.50
2018-03-20T05:32:16.618Z,43.10
2018-03-20T05:34:45.914Z,43.50
2018-03-20T05:37:14.672Z,47.60
2018-03-20T05:39:43.108Z,47.60
2018-03-20T05:42:10.744Z,47.60
2018-03-20T05:44:39.306Z,48.00
2018-03-20T05:47:26.100Z,49.50
2018-03-20T05:49:59.433Z,49.50
2018-03-20T05:52:30.118Z,50.00
2018-03-20T05:54:57.723Z,49.90
2018-03-20T05:57:25.352Z,50.00
2018-03-20T05:59:52.988Z,49.90
2018-03-20T06:02:21.363Z,50.90
2018-03-20T06:04:48.951Z,50.90
2018-03-20T06:07:17.280Z,51.50
2018-03-20T06:09:44.878Z,52.00
2018-03-20T06:12:12.498Z,52.50
2018-03-20T06:14:40.082Z,52.00
2018-03-20T06:17:07.697Z,52.40
2018-03-20T06:19:35.308Z,52.40
2018-03-20T06:22:03.658Z,52.10
2018-03-20T06:24:31.266Z,52.10
2018-03-20T06:26:59.626Z,52.20
2018-03-20T06:29:27.220Z,52.20
2018-03-20T06:31:55.801Z,52.50
2018-03-20T06:34:23.368Z,52.40
2018-03-20T06:36:51.822Z,52.40
2018-03-20T06:39:19.383Z,52.40
2018-03-20T06:41:47.039Z,52.10
2018-03-20T06:44:15.366Z,53.60
2018-03-20T06:46:42.968Z,53.50
2018-03-20T06:49:10.570Z,53.90
2018-03-20T06:51:39.205Z,53.50
2018-03-20T06:54:06.784Z,53.50
2018-03-20T06:56:34.397Z,53.70
2018-03-20T06:59:01.977Z,54.60
2018-03-20T07:01:30.519Z,54.50
2018-03-20T07:03:58.112Z,54.40
2018-03-20T07:06:25.709Z,54.50
2018-03-20T07:08:53.301Z,54.60
2018-03-20T07:11:21.707Z,55.60
2018-03-20T07:13:49.312Z,55.60
2018-03-20T07:16:16.932Z,55.70
2018-03-20T07:18:45.273Z,56.30
2018-03-20T07:21:13.181Z,56.30
2018-03-20T07:23:40.801Z,56.80
2018-03-20T07:26:08.470Z,56.90
2018-03-20T07:28:36.072Z,56.50
2018-03-20T07:31:03.679Z,56.30
2018-03-20T07:33:31.272Z,56.30
2018-03-20T07:35:59.669Z,57.00
2018-03-20T07:38:28.013Z,56.80
2018-03-20T07:40:55.682Z,56.80
2018-03-20T07:43:23.262Z,56.70
2018-03-20T07:45:50.884Z,56.90
2018-03-20T07:48:18.503Z,57.10
2018-03-20T07:50:46.137Z,57.00
2018-03-20T07:53:13.718Z,56.90
2018-03-20T07:55:41.306Z,57.10
2018-03-20T07:58:08.890Z,57.40
2018-03-20T08:00:36.510Z,57.40
2018-03-20T08:03:04.144Z,57.80
2018-03-20T08:05:31.790Z,58.20
2018-03-20T08:07:59.370Z,58.00
2018-03-20T08:10:26.996Z,57.80
2018-03-20T08:12:55.370Z,58.10
2018-03-20T08:15:22.996Z,58.10
2018-03-20T08:17:50.632Z,58.10
2018-03-20T08:20:18.243Z,58.50
2018-03-20T08:22:46.702Z,58.50
2018-03-20T08:25:15.075Z,58.60
2018-03-20T08:27:42.718Z,58.50
2018-03-20T08:30:10.371Z,58.40
2018-03-20T08:32:38.082Z,58.80
2018-03-20T08:35:05.697Z,59.20
2018-03-20T08:37:34.054Z,59.70
2018-03-20T08:40:01.641Z,59.60
2018-03-20T08:42:30.545Z,59.70
2018-03-20T08:44:58.225Z,59.70
2018-03-20T08:47:26.646Z,59.60
2018-03-20T08:49:54.287Z,59.60
2018-03-20T08:52:22.726Z,59.30
2018-03-20T08:54:50.349Z,59.30
2018-03-20T08:57:18.746Z,59.30
2018-03-20T08:59:47.202Z,59.30
2018-03-20T09:02:14.772Z,59.10
2018-03-20T09:04:43.125Z,59.40
2018-03-20T09:07:10.705Z,59.30
2018-03-20T09:09:38.451Z,59.40
2018-03-20T09:12:06.883Z,59.70
2018-03-20T09:14:34.518Z,59.60
2018-03-20T09:17:02.941Z,59.80
2018-03-20T09:19:30.555Z,59.80
2018-03-20T09:21:58.188Z,60.00
2018-03-20T09:24:25.852Z,60.30
2018-03-20T09:26:53.952Z,60.30
2018-03-20T09:29:21.664Z,60.20
2018-03-20T09:31:49.307Z,60.30
2018-03-20T09:34:16.876Z,60.30
2018-03-20T09:36:44.506Z,60.60
2018-03-20T09:39:14.119Z,61.10
2018-03-20T09:41:42.718Z,60.90
2018-03-20T09:44:10.348Z,61.10
2018-03-20T09:46:38.112Z,60.90
2018-03-20T09:49:06.626Z,60.80
2018-03-20T09:51:34.189Z,60.70
2018-03-20T09:54:02.478Z,60.60
2018-03-20T09:56:30.076Z,60.60
2018-03-20T09:58:57.688Z,60.10
2018-03-20T10:01:25.294Z,59.90
2018-03-20T10:03:52.883Z,59.80
2018-03-20T10:06:20.494Z,59.80
2018-03-20T10:08:48.165Z,59.70
2018-03-20T10:11:17.405Z,59.60
2018-03-20T10:13:45.428Z,59.50
2018-03-20T10:16:13.022Z,59.40
2018-03-20T10:18:40.868Z,59.40
2018-03-20T10:21:09.521Z,59.30
2018-03-20T10:23:38.651Z,59.30
2018-03-20T10:26:06.315Z,59.20
2018-03-20T10:28:33.927Z,59.10
2018-03-20T10:31:01.517Z,59.00
2018-03-20T10:33:29.086Z,59.10
2018-03-20T10:35:56.702Z,59.00
2018-03-20T10:38:24.300Z,58.70
2018-03-20T10:40:51.982Z,58.30
2018-03-20T10:43:19.557Z,58.20
2018-03-20T10:45:47.159Z,58.10
2018-03-20T10:48:14.784Z,57.70
2018-03-20T10:50:42.417Z,57.10
2018-03-20T10:53:11.660Z,56.50
2018-03-20T10:55:39.433Z,56.40
2018-03-20T10:58:07.033Z,55.90
2018-03-20T11:03:41.845Z,54.80
2018-03-20T11:06:10.171Z,55.60
2018-03-20T11:09:56.253Z,54.80
2018-03-20T11:12:24.584Z,54.50
2018-03-20T11:17:39.181Z,54.10
2018-03-20T11:20:06.772Z,54.00
2018-03-20T11:22:34.338Z,54.10
2018-03-20T11:26:16.139Z,53.10
2018-03-20T11:28:43.753Z,53.00
2018-03-20T11:31:11.338Z,53.00
2018-03-20T11:33:39.381Z,52.60
2018-03-20T11:36:07.044Z,52.00
2018-03-20T11:38:34.649Z,51.80
2018-03-20T11:41:02.284Z,51.80
2018-03-20T11:43:29.936Z,51.20
2018-03-20T11:45:58.340Z,50.80
2018-03-20T11:48:26.015Z,50.70
2018-03-20T11:50:55.029Z,50.40
2018-03-20T11:53:22.641Z,50.20
2018-03-20T11:55:50.304Z,50.40
2018-03-20T11:58:17.964Z,50.10
2018-03-20T12:00:45.566Z,49.90
2018-03-20T12:03:13.199Z,49.40
2018-03-20T12:05:40.831Z,49.40
2018-03-20T12:11:14.913Z,48.50
2018-03-20T12:13:42.558Z,48.40
2018-03-20T12:16:10.499Z,48.20
2018-03-20T12:18:38.927Z,47.90
2018-03-20T12:21:07.726Z,47.20
2018-03-20T12:23:35.754Z,47.20
2018-03-20T12:28:33.491Z,47.00
2018-03-20T12:31:01.071Z,47.40
2018-03-20T12:33:28.679Z,47.10
2018-03-20T12:35:56.289Z,47.00
2018-03-20T12:38:23.913Z,46.90
2018-03-20T12:40:51.519Z,46.80
2018-03-20T12:43:19.870Z,46.10
2018-03-20T12:47:47.791Z,45.80
2018-03-20T12:50:16.218Z,45.70
2018-03-20T12:53:41.890Z,44.80
2018-03-20T12:56:10.091Z,45.10
2018-03-20T12:58:38.183Z,45.10
2018-03-20T13:01:05.769Z,45.00
2018-03-20T13:03:33.337Z,44.20
2018-03-20T13:06:00.959Z,44.60
2018-03-20T13:08:28.528Z,44.50
2018-03-20T13:10:56.138Z,44.90
2018-03-20T13:13:23.763Z,44.80
2018-03-20T13:15:51.383Z,44.20
2018-03-20T13:18:18.960Z,43.50
2018-03-20T13:20:47.000Z,43.70
2018-03-20T13:23:14.633Z,43.20
2018-03-20T13:25:42.163Z,42.70
2018-03-20T13:28:10.521Z,42.50
2018-03-20T13:30:38.198Z,43.10
2018-03-20T13:33:05.791Z,43.20
2018-03-20T13:35:33.864Z,43.30
2018-03-20T13:38:01.502Z,42.90
2018-03-20T13:40:30.181Z,42.90
2018-03-20T13:43:02.642Z,42.80
2018-03-20T13:45:30.226Z,42.20
2018-03-20T13:47:57.782Z,42.20
2018-03-20T13:50:25.477Z,40.80
2018-03-20T13:52:53.107Z,40.90
2018-03-20T13:55:20.772Z,40.60
2018-03-20T13:57:48.527Z,40.60
2018-03-20T14:00:16.889Z,40.00
2018-03-20T14:02:44.471Z,39.90
2018-03-20T14:05:12.064Z,40.50
2018-03-20T14:07:40.435Z,40.20
2018-03-20T14:10:08.786Z,39.60
2018-03-20T14:12:36.382Z,39.40
2018-03-20T14:15:03.966Z,39.30
2018-03-20T14:17:31.545Z,39.50
2018-03-20T14:20:00.220Z,39.10
2018-03-20T14:22:27.804Z,39.30
2018-03-20T14:24:55.415Z,39.20
2018-03-20T14:27:23.773Z,38.90
2018-03-20T14:29:51.363Z,38.80
2018-03-20T14:32:18.938Z,39.20
2018-03-20T14:34:48.144Z,38.30
2018-03-20T14:37:16.560Z,37.60
2018-03-20T14:39:44.924Z,37.80
2018-03-20T14:42:12.520Z,37.70
2018-03-20T14:44:40.906Z,37.50
2018-03-20T14:47:09.446Z,37.40
2018-03-20T14:49:39.764Z,37.20
2018-03-20T14:52:08.290Z,37.50
2018-03-20T14:54:35.892Z,37.40
2018-03-20T14:57:03.466Z,37.50
2018-03-20T14:59:31.127Z,37.30
2018-03-20T15:01:58.733Z,37.10
2018-03-20T15:04:26.347Z,36.50
2018-03-20T15:06:54.749Z,36.10
2018-03-20T15:09:22.935Z,35.80
2018-03-20T15:11:50.583Z,36.10
2018-03-20T15:14:18.575Z,36.00
2018-03-20T15:16:46.171Z,36.40
2018-03-20T15:19:14.515Z,36.20
2018-03-20T15:21:42.085Z,36.20
2018-03-20T15:24:09.719Z,35.50
2018-03-20T15:26:37.318Z,36.10
2018-03-20T15:29:05.069Z,35.90
2018-03-20T15:31:34.440Z,35.50
2018-03-20T15:34:02.208Z,35.70
2018-03-20T15:36:29.820Z,35.70
2018-03-20T15:38:58.346Z,35.40
2018-03-20T15:41:27.273Z,35.80
2018-03-20T15:43:55.173Z,35.20
2018-03-20T15:46:23.988Z,35.40
2018-03-20T15:48:52.346Z,35.20
2018-03-20T15:51:20.801Z,35.30
2018-03-20T15:53:48.425Z,34.70
2018-03-20T15:56:16.008Z,34.60
2018-03-20T15:58:43.616Z,34.60
2018-03-20T16:01:11.977Z,35.00
2018-03-20T16:03:39.984Z,34.90
2018-03-20T16:06:07.690Z,34.80
2018-03-20T16:08:35.295Z,34.20
2018-03-20T16:11:02.885Z,34.30
2018-03-20T16:13:31.208Z,34.50
2018-03-20T16:15:59.546Z,34.20
2018-03-20T16:18:27.546Z,34.10
2018-03-20T16:20:55.218Z,33.90
2018-03-20T16:23:22.805Z,33.70
2018-03-20T16:25:50.456Z,33.90
2018-03-20T16:28:18.048Z,34.50
2018-03-20T16:30:45.705Z,34.20
2018-03-20T16:33:13.296Z,34.10
2018-03-20T16:35:40.854Z,33.50
2018-03-20T16:38:08.426Z,34.20
2018-03-20T16:40:35.983Z,34.20
2018-03-20T16:43:03.564Z,34.40
2018-03-20T16:45:31.993Z,34.60
2018-03-20T16:48:00.322Z,35.30
2018-03-20T16:50:27.954Z,35.30
2018-03-20T16:52:55.607Z,35.30
2018-03-20T16:55:23.178Z,35.00
2018-03-20T16:57:50.752Z,35.00
2018-03-20T17:00:18.362Z,35.10
2018-03-20T17:02:46.026Z,35.00
2018-03-20T17:05:13.638Z,35.30
2018-03-20T17:07:41.219Z,35.20
2018-03-20T17:10:09.625Z,35.50
2018-03-20T17:12:37.350Z,35.50
2018-03-20T17:15:04.946Z,35.50
2018-03-20T17:17:32.600Z,35.70
2018-03-20T17:20:00.979Z,35.60
2018-03-20T17:22:28.641Z,35.50
2018-03-20T17:24:57.093Z,36.10
2018-03-20T17:27:24.626Z,36.10
2018-03-20T17:29:52.210Z,36.10
2018-03-20T17:32:19.858Z,36.40
2018-03-20T17:34:47.471Z,36.40
2018-03-20T17:37:15.060Z,36.40
2018-03-20T17:39:43.423Z,36.80
2018-03-20T17:42:11.015Z,36.80
2018-03-20T17:44:39.356Z,36.70
2018-03-20T17:47:07.558Z,36.80
2018-03-20T17:49:35.226Z,37.00
2018-03-20T17:52:02.800Z,37.20
2018-03-20T17:54:30.506Z,37.30
2018-03-20T17:56:58.049Z,37.10
2018-03-20T17:59:25.602Z,37.40
2018-03-20T18:01:53.922Z,37.40
2018-03-20T18:04:21.510Z,37.30
2018-03-20T18:06:49.116Z,37.60
2018-03-20T18:09:17.521Z,37.40
2018-03-20T18:11:45.502Z,37.40
2018-03-20T18:14:13.439Z,37.90
2018-03-20T18:16:41.154Z,37.90
2018-03-20T18:19:08.765Z,38.10
2018-03-20T18:21:36.448Z,38.50
2018-03-20T18:24:04.144Z,38.30
2018-03-20T18:26:31.718Z,38.20
2018-03-20T18:28:59.283Z,38.50
2018-03-20T18:31:26.904Z,38.40
2018-03-20T18:33:54.503Z,38.60
2018-03-20T18:36:22.055Z,38.80
2018-03-20T18:38:49.641Z,39.00
2018-03-20T18:41:17.210Z,39.10
2018-03-20T18:43:44.815Z,39.50
2018-03-20T18:46:12.378Z,39.60
2018-03-20T18:48:39.973Z,39.60
2018-03-20T18:51:07.526Z,39.60
2018-03-20T18:53:35.102Z,39.70
2018-03-20T18:56:02.645Z,39.60
2018-03-20T18:58:30.596Z,39.70
2018-03-20T19:00:58.927Z,39.40
2018-03-20T19:03:26.592Z,39.40
2018-03-20T19:05:54.215Z,39.30
2018-03-20T19:08:23.123Z,39.40
2018-03-20T19:10:50.745Z,39.40
2018-03-20T19:13:18.433Z,39.70
2018-03-20T19:15:46.023Z,39.70
2018-03-20T19:18:13.615Z,39.80
2018-03-20T19:20:41.158Z,40.00
2018-03-20T19:23:08.765Z,39.90
2018-03-20T19:25:37.167Z,39.80
2018-03-20T19:28:04.740Z,39.70
2018-03-20T19:30:34.607Z,40.10
2018-03-20T19:33:02.202Z,39.90
2018-03-20T19:35:29.826Z,40.00
2018-03-20T19:37:58.158Z,40.60
2018-03-20T19:40:25.725Z,40.20
2018-03-20T19:42:53.310Z,40.10
2018-03-20T19:45:20.901Z,40.10
2018-03-20T19:47:48.486Z,40.20
2018-03-20T19:50:16.099Z,40.30
2018-03-20T19:52:43.683Z,40.40
2018-03-20T19:55:11.304Z,40.40
2018-03-20T19:57:38.922Z,40.50
2018-03-20T20:00:06.519Z,40.70
2018-03-20T20:02:34.140Z,40.50
2018-03-20T20:05:02.515Z,40.40
2018-03-20T20:07:30.106Z,40.40
2018-03-20T20:09:58.504Z,40.60
2018-03-20T20:12:26.823Z,40.70
2018-03-20T20:14:54.412Z,40.60
2018-03-20T20:17:21.958Z,40.70
2018-03-20T20:19:49.562Z,40.50
2018-03-20T20:22:17.196Z,40.50
2018-03-20T20:24:44.779Z,40.60
2018-03-20T20:27:12.363Z,40.60
2018-03-20T20:29:40.802Z,40.60
2018-03-20T20:32:08.454Z,40.80
2018-03-20T20:34:36.132Z,41.20
2018-03-20T20:37:03.689Z,40.80
2018-03-20T20:39:31.287Z,40.80
2018-03-20T20:41:58.843Z,40.80
2018-03-20T20:44:26.445Z,40.90
2018-03-20T20:46:54.007Z,40.80
2018-03-20T20:49:21.595Z,40.80
2018-03-20T20:51:49.924Z,41.30
2018-03-20T20:54:17.516Z,41.20
2018-03-20T20:56:45.126Z,41.10
2018-03-20T20:59:13.474Z,41.20
2018-03-20T21:01:41.059Z,41.20
2018-03-20T21:04:08.643Z,41.10
2018-03-20T21:06:36.254Z,41.30
2018-03-20T21:09:03.879Z,41.40
2018-03-20T21:11:31.484Z,41.30
2018-03-20T21:13:59.912Z,41.40
2018-03-20T21:16:28.295Z,41.30
2018-03-20T21:18:55.909Z,41.50
2018-03-20T21:21:23.465Z,41.50
2018-03-20T21:23:51.044Z,41.50
2018-03-20T21:26:18.597Z,41.60
2018-03-20T21:28:46.165Z,41.80
2018-03-20T21:31:13.726Z,41.80
2018-03-20T21:33:41.322Z,41.80
2018-03-20T21:36:08.910Z,42.00
2018-03-20T21:38:36.518Z,41.90
2018-03-20T21:41:04.840Z,42.00
2018-03-20T21:43:32.667Z,41.90
2018-03-20T21:46:00.232Z,41.80
2018-03-20T21:48:27.805Z,42.00
2018-03-20T21:50:55.382Z,42.00
2018-03-20T21:53:23.011Z,42.10
2018-03-20T21:55:50.572Z,42.00
2018-03-20T21:58:18.142Z,42.00
2018-03-20T22:00:45.738Z,42.10
2018-03-20T22:03:13.315Z,42.10
2018-03-20T22:05:40.909Z,42.00
2018-03-20T22:08:08.542Z,42.10
2018-03-20T22:10:36.110Z,42.10
2018-03-20T22:13:03.678Z,42.20
2018-03-20T22:15:31.259Z,42.20
2018-03-20T22:17:58.845Z,42.20
2018-03-20T22:20:26.708Z,42.20
2018-03-20T22:22:54.283Z,42.20
2018-03-20T22:25:21.879Z,42.40
2018-03-20T22:27:49.435Z,42.40
2018-03-20T22:30:17.026Z,42.40
2018-03-20T22:32:44.586Z,42.40
2018-03-20T22:35:12.169Z,42.40
2018-03-20T22:37:40.331Z,42.60
2018-03-20T22:40:09.134Z,42.50
2018-03-20T22:42:37.231Z,42.50
2018-03-20T22:45:05.611Z,42.60
2018-03-20T22:47:33.615Z,42.60
2018-03-20T22:50:02.789Z,42.80
2018-03-20T22:52:30.407Z,42.70
2018-03-20T22:54:57.985Z,42.70
2018-03-20T22:57:26.561Z,42.80
2018-03-20T22:59:55.747Z,42.80
2018-03-20T23:02:23.883Z,43.10
2018-03-20T23:04:51.537Z,42.80
2018-03-20T23:07:20.365Z,42.90
2018-03-20T23:09:49.064Z,42.80
2018-03-20T23:12:18.060Z,42.80
2018-03-20T23:14:47.167Z,42.90
2018-03-20T23:17:15.193Z,42.90
2018-03-20T23:19:43.464Z,42.80
2018-03-20T23:22:11.656Z,42.90
2018-03-20T23:24:40.826Z,42.90
2018-03-20T23:27:08.989Z,42.90
2018-03-20T23:29:37.290Z,42.80
2018-03-20T23:32:05.950Z,43.00
2018-03-20T23:34:34.045Z,42.80
2018-03-20T23:37:03.535Z,43.00
2018-03-20T23:39:33.129Z,42.80
2018-03-20T23:42:01.236Z,42.90
2018-03-20T23:44:31.161Z,42.80
2018-03-20T23:46:59.958Z,42.80
2018-03-20T23:49:28.138Z,42.80
2018-03-20T23:51:56.531Z,42.90
2018-03-20T23:54:25.364Z,42.80
2018-03-20T23:56:53.563Z,42.90
2018-03-20T23:59:22.564Z,43.00
